VTSS/HDY METAR and TAF weather

Enter ICAO airport designator
Station Type Date Time Source
VTSS METAR 2019/02/20 07:00 UTC NOAA

VTSS 200700Z 04012KT 290V080 9999 SCT020 SCT100 32/23 Q1012 NOSIG


Station Type Date Time Source
VTSS Decoded METAR 2019/02/20 07:00 UTC NOAA

Hat Yai, Thailand (VTSS) 06-55N 100-26E 35M
Feb 20, 2019 - 02:00 AM EST / 2019.02.20 0700 UTC
Wind: from the NE (040 degrees) at 14 MPH (12 KT) (direction variable):0
Visibility: greater than 7 mile(s):0
Sky conditions: partly cloudy
Temperature: 89 F (32 C)
Heat index: 96.8 F (36.0 C):1
Dew Point: 73 F (23 C)
Relative Humidity: 59%
Pressure (altimeter): 29.88 in. Hg (1012 hPa)
ob: VTSS 200700Z 04012KT 290V080 9999 SCT020 SCT100 32/23 Q1012 NOSIG
cycle: 7

Station Type Date Time Source
VTSS TAF 2019/02/20 06:36 UTC NOAA

TAF VTSS 200500Z 2006/2106 06010KT 9999 SCT020
BECMG 2013/2015 00000KT
BECMG 2102/2104 06010KT


Example: see airport list